FW0655 Weather Reports


Display with metric or nautical units.
time (UTC)temp
F
wind
direction
speed
MPH
gust
MPH
rain 1hr
in
rain 24hr
in
rain mn
in
humidity
%
barometer
mb
20191211090218 26 294 2.0 4.0 0.00 0.08 0.00 74 1022.9
20191211084713 26 325 1.0 4.0 0.00 0.09 0.00 73 1023.2
20191211083209 26 11 2.0 12.0 0.00 0.09 0.00 73 1022.9
20191211081750 26 9 5.0 11.0 0.00 0.09 0.00 74 1022.8
20191211080117 27 19 4.0 9.0 0.00 0.09 0.00 76 1022.8
20191211074801 27 5 2.0 6.0 0.00 0.12 0.00 76 1022.7
20191211073126 27 360 3.0 5.0 0.00 0.12 0.00 77 1022.9
20191211071618 27 305 2.0 5.0 0.00 0.12 0.00 77 1022.7
20191211070153 27 9 6.0 10.0 0.00 0.12 0.00 77 1021.9
20191211064749 27 360 5.0 13.0 0.00 0.17 0.00 78 1021.8
20191211063250 27 326 8.0 14.0 0.00 0.17 0.00 78 1021.5
20191211061614 27 5 4.0 10.0 0.00 0.17 0.00 78 1021.7
20191211051531 29 14 7.0 15.0 0.00 0.22 0.00 78 1020.9
20191211050137 29 299 6.0 10.0 0.00 0.22 0.00 79 1021.0
20191211044701 30 285 4.0 11.0 0.00 0.23 0.22 78 1020.9
20191211043059 30 313 3.0 13.0 0.00 0.23 0.22 79 1021.3
20191211041540 30 355 4.0 12.0 0.00 0.23 0.22 80 1021.1
20191211040123 30 264 3.0 7.0 0.00 0.23 0.22 81 1020.4
20191211034510 30 329 4.0 12.0 0.00 0.24 0.22 81 1020.6
20191211033056 31 321 8.0 14.0 0.00 0.24 0.22 80 1020.1
20191211031509 32 288 2.0 5.0 0.00 0.24 0.22 79 1020.2
20191211030008 32 295 4.0 9.0 0.00 0.24 0.22 79 1020.5
20191211024502 31 313 4.0 11.0 0.00 0.24 0.22 79 1019.7
20191211023432 31 273 2.0 9.0 0.00 0.24 0.22 80 1019.5
20191211021821 32 307 6.0 11.0 0.00 0.24 0.22 80 1019.5
20191211020430 32 15 6.0 10.0 0.00 0.24 0.22 80 1019.3
20191211014715 32 299 6.0 13.0 0.00 0.25 0.22 81 1019.4
20191211013229 33 281 8.0 13.0 0.00 0.25 0.22 80 1018.5
20191211011809 34 318 2.0 5.0 0.00 0.25 0.22 80 1018.4
20191211010322 34 270 1.0 9.0 0.00 0.25 0.22 80 1017.9
20191211004735 34 321 4.0 11.0 0.00 0.25 0.22 81 1017.3
20191211003231 34 314 4.0 11.0 0.00 0.25 0.22 82 1016.7
20191211001717 35 355 7.0 13.0 0.00 0.25 0.22 82 1016.5
20191211000135 36 16 9.0 13.0 0.00 0.25 0.22 81 1016.5
20191210234733 37 329 6.0 12.0 0.00 0.28 0.22 80 1015.6
20191210233149 38 23 4.0 8.0 0.00 0.28 0.22 76 1015.1
20191210231654 39 342 0.0 4.0 0.00 0.28 0.22 68 1015.3
20191210230156 39 231 2.0 5.0 0.00 0.28 0.22 67 1014.8
20191210224547 39 265 2.0 8.0 0.00 0.32 0.22 68 1014.4
20191210223031 40 275 7.0 13.0 0.00 0.32 0.22 68 1013.8
20191210221611 40 282 6.0 13.0 0.00 0.32 0.22 76 1013.8
20191210220131 40 286 3.0 7.0 0.00 0.32 0.22 82 1013.7
20191210214508 40 174 0.0 0.0 0.00 0.34 0.22 82 1012.4
20191210213029 40 174 0.0 3.0 0.00 0.34 0.22 82 1011.4
20191210211515 41 304 0.0 4.0 0.01 0.34 0.22 82 1011.7
20191210210012 41 269 0.0 6.0 0.01 0.37 0.22 85 1011.4
20191210204523 41 320 1.0 7.0 0.02 0.37 0.22 88 1011.8
20191210203007 41 211 0.0 0.0 0.02 0.37 0.22 88 1012.0
20191210201526 41 211 1.0 3.0 0.02 0.36 0.21 88 1010.9
20191210200001 41 183 0.0 2.0 0.03 0.40 0.21 88 1009.9
20191210194810 41 217 0.0 0.0 0.02 0.39 0.20 88 1009.9
20191210193314 41 219 0.0 3.0 0.03 0.39 0.20 87 1009.8
20191210191922 42 167 3.0 5.0 0.02 0.38 0.19 87 1009.2
20191210190244 42 305 0.0 1.0 0.01 0.37 0.18 86 1008.8
20191210184740 42 305 0.0 1.0 0.01 0.42 0.18 86 1009.1
20191210183325 42 14 0.0 7.0 0.00 0.41 0.17 85 1008.9
20191210181758 43 319 6.0 15.0 0.00 0.41 0.17 83 1009.0
20191210180333 46 327 8.0 14.0 0.00 0.41 0.17 80 1008.6
20191210174813 51 339 7.0 14.0 0.00 0.45 0.17 76 1007.7
20191210173236 51 232 1.0 7.0 0.00 0.45 0.17 80 1007.3
20191210171712 51 229 3.0 7.0 0.00 0.45 0.17 82 1006.7
20191210170158 51 220 2.0 7.0 0.00 0.45 0.17 82 1007.1
20191210164815 51 209 3.0 7.0 0.00 0.48 0.17 82 1007.4
20191210163221 51 214 4.0 7.0 0.00 0.48 0.17 82 1007.6
20191210161632 51 214 2.0 6.0 0.00 0.48 0.17 82 1007.6
20191210160230 51 218 3.0 10.0 0.00 0.48 0.17 84 1007.1
20191210154610 51 242 4.0 11.0 0.00 0.51 0.17 87 1007.2
20191210153157 50 239 5.0 13.0 0.01 0.51 0.17 90 1006.7
20191210151558 50 211 4.0 13.0 0.01 0.51 0.17 91 1006.2
20191210150045 50 207 4.0 11.0 0.01 0.51 0.17 93 1006.1
20191210144644 49 223 3.0 9.0 0.01 0.54 0.17 93 1006.0
20191210143129 49 203 3.0 10.0 0.00 0.53 0.16 94 1006.2
20191210141555 48 198 4.0 12.0 0.00 0.53 0.16 94 1006.0
20191210140041 47 229 1.0 10.0 0.00 0.53 0.16 94 1006.2
20191210134557 48 182 4.0 8.0 0.00 0.55 0.16 94 1006.1
20191210133206 47 161 5.0 10.0 0.00 0.55 0.16 94 1006.1
20191210131534 45 219 2.0 5.0 0.00 0.55 0.16 94 1005.9
20191210130024 44 200 1.0 3.0 0.00 0.55 0.16 94 1005.8
20191210124517 44 130 1.0 3.0 0.00 0.57 0.16 93 1005.7
20191210123033 45 191 1.0 5.0 0.00 0.57 0.16 94 1005.1
20191210121506 42 153 0.0 3.0 0.00 0.57 0.16 94 1004.8
20191210120013 42 148 0.0 4.0 0.01 0.59 0.16 94 1005.0
20191210114534 41 124 1.0 4.0 0.01 0.59 0.16 93 1004.7
20191210113004 41 55 0.0 2.0 0.02 0.59 0.16 94 1004.8
20191210111502 40 360 0.0 3.0 0.02 0.59 0.16 93 1004.7
20191210110004 40 123 0.0 2.0 0.01 0.57 0.15 93 1004.7
20191210104815 40 123 0.0 3.0 0.01 0.57 0.15 94 1004.6
20191210103234 40 123 0.0 1.0 0.00 0.56 0.14 93 1004.4
20191210101713 40 123 0.0 1.0 0.00 0.56 0.14 93 1004.0
20191210100155 40 26 0.0 0.0 0.00 0.56 0.14 93 1003.9
20191210094726 40 45 0.0 0.0 0.00 0.57 0.14 93 1003.9
20191210093154 40 44 0.0 0.0 0.00 0.57 0.14 93 1003.7